sensor_id;sensor_type;location;lat;lon;timestamp;pressure;altitude;pressure_sealevel;temperature;humidity
52735;BME280;38631;47.572;10.704;2023-03-13T00:02:07;92255.09;;;2.32;100.00
52735;BME280;38631;47.572;10.704;2023-03-13T00:04:32;92258.78;;;2.36;100.00
52735;BME280;38631;47.572;10.704;2023-03-13T00:06:57;92246.19;;;2.48;100.00
52735;BME280;38631;47.572;10.704;2023-03-13T00:09:23;92234.41;;;2.41;100.00
52735;BME280;38631;47.572;10.704;2023-03-13T00:11:48;92213.44;;;2.30;100.00
52735;BME280;38631;47.572;10.704;2023-03-13T00:14:13;92213.97;;;2.27;100.00
52735;BME280;38631;47.572;10.704;2023-03-13T00:16:39;92206.09;;;2.27;100.00
52735;BME280;38631;47.572;10.704;2023-03-13T00:19:06;92205.84;;;2.34;100.00
52735;BME280;38631;47.572;10.704;2023-03-13T00:21:32;92207.66;;;2.13;100.00
52735;BME280;38631;47.572;10.704;2023-03-13T00:23:59;92206.63;;;2.14;100.00
52735;BME280;38631;47.572;10.704;2023-03-13T00:26:28;92191.94;;;2.08;100.00
52735;BME280;38631;47.572;10.704;2023-03-13T00:28:54;92205.06;;;2.28;100.00
52735;BME280;38631;47.572;10.704;2023-03-13T00:31:22;92193.53;;;2.29;100.00
52735;BME280;38631;47.572;10.704;2023-03-13T00:33:50;92183.59;;;2.26;100.00
52735;BME280;38631;47.572;10.704;2023-03-13T00:36:26;92189.84;;;2.05;100.00
52735;BME280;38631;47.572;10.704;2023-03-13T00:38:53;92185.94;;;2.17;100.00
52735;BME280;38631;47.572;10.704;2023-03-13T00:41:30;92189.59;;;2.32;100.00
52735;BME280;38631;47.572;10.704;2023-03-13T00:43:56;92178.81;;;1.77;100.00
52735;BME280;38631;47.572;10.704;2023-03-13T00:46:24;92177.28;;;1.86;100.00
52735;BME280;38631;47.572;10.704;2023-03-13T00:48:50;92186.47;;;2.09;100.00
52735;BME280;38631;47.572;10.704;2023-03-13T00:51:17;92187.00;;;2.11;100.00
52735;BME280;38631;47.572;10.704;2023-03-13T00:53:43;92190.13;;;2.08;100.00
52735;BME280;38631;47.572;10.704;2023-03-13T00:56:11;92195.09;;;2.15;100.00
52735;BME280;38631;47.572;10.704;2023-03-13T00:58:38;92179.38;;;2.00;100.00
52735;BME280;38631;47.572;10.704;2023-03-13T01:01:12;92183.59;;;2.06;100.00
52735;BME280;38631;47.572;10.704;2023-03-13T01:03:39;92178.06;;;2.02;100.00
52735;BME280;38631;47.572;10.704;2023-03-13T01:06:06;92179.09;;;1.76;100.00
52735;BME280;38631;47.572;10.704;2023-03-13T01:08:32;92169.09;;;1.57;100.00
52735;BME280;38631;47.572;10.704;2023-03-13T01:11:09;92178.81;;;1.67;100.00
52735;BME280;38631;47.572;10.704;2023-03-13T01:13:35;92173.88;;;1.81;100.00
52735;BME280;38631;47.572;10.704;2023-03-13T01:16:07;92181.72;;;1.81;100.00
52735;BME280;38631;47.572;10.704;2023-03-13T01:18:33;92171.25;;;1.81;100.00
52735;BME280;38631;47.572;10.704;2023-03-13T01:20:58;92170.16;;;1.61;100.00
52735;BME280;38631;47.572;10.704;2023-03-13T01:23:25;92167.75;;;1.34;100.00
52735;BME280;38631;47.572;10.704;2023-03-13T01:25:50;92164.09;;;1.45;100.00
52735;BME280;38631;47.572;10.704;2023-03-13T01:28:15;92174.09;;;1.59;100.00
52735;BME280;38631;47.572;10.704;2023-03-13T01:30:41;92169.84;;;1.37;100.00
52735;BME280;38631;47.572;10.704;2023-03-13T01:33:06;92163.88;;;1.62;100.00
52735;BME280;38631;47.572;10.704;2023-03-13T01:35:31;92151.22;;;1.18;100.00
52735;BME280;38631;47.572;10.704;2023-03-13T01:37:57;92169.38;;;1.50;100.00
52735;BME280;38631;47.572;10.704;2023-03-13T01:40:22;92163.81;;;1.32;100.00
52735;BME280;38631;47.572;10.704;2023-03-13T01:42:53;92156.00;;;1.47;100.00
52735;BME280;38631;47.572;10.704;2023-03-13T01:48:35;92166.44;;;1.37;100.00
52735;BME280;38631;47.572;10.704;2023-03-13T01:51:05;92165.66;;;1.31;100.00
52735;BME280;38631;47.572;10.704;2023-03-13T01:53:33;92171.44;;;1.38;100.00
52735;BME280;38631;47.572;10.704;2023-03-13T01:56:03;92167.03;;;1.59;100.00
52735;BME280;38631;47.572;10.704;2023-03-13T01:58:30;92179.59;;;1.67;100.00
52735;BME280;38631;47.572;10.704;2023-03-13T02:00:56;92163.09;;;1.62;100.00
52735;BME280;38631;47.572;10.704;2023-03-13T02:03:22;92166.50;;;1.62;100.00
52735;BME280;38631;47.572;10.704;2023-03-13T02:05:49;92155.00;;;1.58;100.00
52735;BME280;38631;47.572;10.704;2023-03-13T02:08:18;92154.84;;;1.12;100.00
52735;BME280;38631;47.572;10.704;2023-03-13T02:11:18;92154.66;;;1.34;100.00
52735;BME280;38631;47.572;10.704;2023-03-13T02:13:36;92144.47;;;1.43;100.00
52735;BME280;38631;47.572;10.704;2023-03-13T02:16:02;92152.09;;;1.55;100.00
52735;BME280;38631;47.572;10.704;2023-03-13T02:18:27;92145.56;;;1.62;100.00
52735;BME280;38631;47.572;10.704;2023-03-13T02:20:57;92148.94;;;1.52;100.00
52735;BME280;38631;47.572;10.704;2023-03-13T02:23:33;92137.44;;;1.48;100.00
52735;BME280;38631;47.572;10.704;2023-03-13T02:26:03;92152.09;;;1.55;100.00
52735;BME280;38631;47.572;10.704;2023-03-13T02:28:31;92139.50;;;1.36;100.00
52735;BME280;38631;47.572;10.704;2023-03-13T02:30:59;92161.00;;;1.64;100.00
52735;BME280;38631;47.572;10.704;2023-03-13T02:33:27;92143.22;;;1.61;100.00
52735;BME280;38631;47.572;10.704;2023-03-13T02:35:54;92137.47;;;1.69;100.00
52735;BME280;38631;47.572;10.704;2023-03-13T02:38:23;92149.25;;;1.71;100.00
52735;BME280;38631;47.572;10.704;2023-03-13T02:40:49;92140.84;;;1.64;100.00
52735;BME280;38631;47.572;10.704;2023-03-13T02:43:20;92148.72;;;1.75;100.00
52735;BME280;38631;47.572;10.704;2023-03-13T02:46:09;92146.63;;;1.56;100.00
52735;BME280;38631;47.572;10.704;2023-03-13T02:48:41;92161.81;;;1.69;100.00
52735;BME280;38631;47.572;10.704;2023-03-13T02:54:01;92151.59;;;1.68;100.00
52735;BME280;38631;47.572;10.704;2023-03-13T02:56:29;92148.97;;;1.73;100.00
52735;BME280;38631;47.572;10.704;2023-03-13T02:58:55;92146.09;;;1.75;100.00
52735;BME280;38631;47.572;10.704;2023-03-13T03:01:21;92154.25;;;1.88;100.00
52735;BME280;38631;47.572;10.704;2023-03-13T03:03:46;92153.44;;;1.72;100.00
52735;BME280;38631;47.572;10.704;2023-03-13T03:06:12;92150.03;;;1.72;100.00
52735;BME280;38631;47.572;10.704;2023-03-13T03:08:38;92152.63;;;1.57;100.00
52735;BME280;38631;47.572;10.704;2023-03-13T03:11:06;92133.00;;;1.54;100.00
52735;BME280;38631;47.572;10.704;2023-03-13T03:13:31;92147.66;;;1.70;100.00
52735;BME280;38631;47.572;10.704;2023-03-13T03:15:58;92151.63;;;1.83;100.00
52735;BME280;38631;47.572;10.704;2023-03-13T03:18:23;92143.50;;;1.95;100.00
52735;BME280;38631;47.572;10.704;2023-03-13T03:20:49;92154.25;;;1.93;100.00
52735;BME280;38631;47.572;10.704;2023-03-13T03:23:14;92170.22;;;1.92;100.00
52735;BME280;38631;47.572;10.704;2023-03-13T03:25:40;92164.19;;;2.02;100.00
52735;BME280;38631;47.572;10.704;2023-03-13T03:28:05;92154.78;;;2.06;100.00
52735;BME280;38631;47.572;10.704;2023-03-13T03:30:31;92155.81;;;2.05;100.00
52735;BME280;38631;47.572;10.704;2023-03-13T03:32:56;92154.75;;;1.80;100.00
52735;BME280;38631;47.572;10.704;2023-03-13T03:35:21;92162.06;;;1.73;100.00
52735;BME280;38631;47.572;10.704;2023-03-13T03:37:47;92153.94;;;1.64;100.00
52735;BME280;38631;47.572;10.704;2023-03-13T03:40:12;92154.25;;;1.78;100.00
52735;BME280;38631;47.572;10.704;2023-03-13T03:42:38;92155.81;;;1.94;100.00
52735;BME280;38631;47.572;10.704;2023-03-13T03:45:03;92146.63;;;1.61;100.00
52735;BME280;38631;47.572;10.704;2023-03-13T03:47:29;92149.25;;;1.61;100.00
52735;BME280;38631;47.572;10.704;2023-03-13T03:49:54;92141.66;;;1.80;100.00
52735;BME280;38631;47.572;10.704;2023-03-13T03:52:19;92138.00;;;1.91;100.00
52735;BME280;38631;47.572;10.704;2023-03-13T03:54:45;92141.94;;;1.84;100.00
52735;BME280;38631;47.572;10.704;2023-03-13T03:57:10;92141.66;;;1.90;100.00
52735;BME280;38631;47.572;10.704;2023-03-13T03:59:35;92144.28;;;1.85;100.00
52735;BME280;38631;47.572;10.704;2023-03-13T04:02:01;92143.25;;;1.76;100.00
52735;BME280;38631;47.572;10.704;2023-03-13T04:04:26;92129.09;;;1.82;100.00
52735;BME280;38631;47.572;10.704;2023-03-13T04:06:52;92118.63;;;1.82;100.00
52735;BME280;38631;47.572;10.704;2023-03-13T04:09:17;92126.47;;;1.92;100.00
52735;BME280;38631;47.572;10.704;2023-03-13T04:11:42;92110.78;;;1.82;100.00
52735;BME280;38631;47.572;10.704;2023-03-13T04:14:08;92119.94;;;1.85;100.00
52735;BME280;38631;47.572;10.704;2023-03-13T04:16:34;92129.88;;;1.93;100.00
52735;BME280;38631;47.572;10.704;2023-03-13T04:18:59;92119.44;;;2.08;100.00
52735;BME280;38631;47.572;10.704;2023-03-13T04:21:25;92117.59;;;2.09;100.00
52735;BME280;38631;47.572;10.704;2023-03-13T04:23:50;92105.81;;;2.16;100.00
52735;BME280;38631;47.572;10.704;2023-03-13T04:26:15;92107.38;;;2.12;100.00
52735;BME280;38631;47.572;10.704;2023-03-13T04:28:41;92092.97;;;2.10;100.00
52735;BME280;38631;47.572;10.704;2023-03-13T04:31:06;92094.56;;;2.11;100.00
52735;BME280;38631;47.572;10.704;2023-03-13T04:33:32;92099.78;;;2.21;98.77
52735;BME280;38631;47.572;10.704;2023-03-13T04:35:57;92096.63;;;2.24;100.00
52735;BME280;38631;47.572;10.704;2023-03-13T04:38:22;92088.25;;;2.12;100.00
52735;BME280;38631;47.572;10.704;2023-03-13T04:40:48;92058.41;;;1.87;100.00
52735;BME280;38631;47.572;10.704;2023-03-13T04:43:13;92067.06;;;1.83;100.00
52735;BME280;38631;47.572;10.704;2023-03-13T04:45:38;92057.38;;;1.99;100.00
52735;BME280;38631;47.572;10.704;2023-03-13T04:48:04;92069.16;;;2.11;100.00
52735;BME280;38631;47.572;10.704;2023-03-13T04:50:29;92061.53;;;2.20;100.00
52735;BME280;38631;47.572;10.704;2023-03-13T04:52:55;92074.88;;;2.29;100.00
52735;BME280;38631;47.572;10.704;2023-03-13T04:55:20;92076.97;;;2.22;100.00
52735;BME280;38631;47.572;10.704;2023-03-13T04:57:45;92060.75;;;2.14;100.00
52735;BME280;38631;47.572;10.704;2023-03-13T05:00:11;92085.63;;;2.22;100.00
52735;BME280;38631;47.572;10.704;2023-03-13T05:02:36;92057.63;;;2.07;99.53
52735;BME280;38631;47.572;10.704;2023-03-13T05:05:02;92050.53;;;2.08;100.00
52735;BME280;38631;47.572;10.704;2023-03-13T05:07:27;92041.59;;;2.29;100.00
52735;BME280;38631;47.572;10.704;2023-03-13T05:09:53;92043.47;;;2.19;99.20
52735;BME280;38631;47.572;10.704;2023-03-13T05:12:18;92037.72;;;2.11;100.00
52735;BME280;38631;47.572;10.704;2023-03-13T05:14:44;92051.06;;;2.10;100.00
52735;BME280;38631;47.572;10.704;2023-03-13T05:17:09;92036.66;;;2.17;100.00
52735;BME280;38631;47.572;10.704;2023-03-13T05:19:36;92039.25;;;2.23;100.00
52735;BME280;38631;47.572;10.704;2023-03-13T05:22:02;92036.66;;;2.17;100.00
52735;BME280;38631;47.572;10.704;2023-03-13T05:24:27;92032.72;;;2.20;100.00
52735;BME280;38631;47.572;10.704;2023-03-13T05:26:52;92029.00;;;2.36;100.00
52735;BME280;38631;47.572;10.704;2023-03-13T05:29:18;92014.09;;;2.32;98.83
52735;BME280;38631;47.572;10.704;2023-03-13T05:31:43;92028.53;;;2.19;100.00
52735;BME280;38631;47.572;10.704;2023-03-13T05:34:09;92032.47;;;2.22;100.00
52735;BME280;38631;47.572;10.704;2023-03-13T05:36:34;92040.03;;;2.28;100.00
52735;BME280;38631;47.572;10.704;2023-03-13T05:38:59;92042.13;;;2.31;100.00
52735;BME280;38631;47.572;10.704;2023-03-13T05:41:25;92044.22;;;2.29;100.00
52735;BME280;38631;47.572;10.704;2023-03-13T05:43:50;92047.38;;;2.31;100.00
52735;BME280;38631;47.572;10.704;2023-03-13T05:46:15;92036.88;;;2.31;100.00
52735;BME280;38631;47.572;10.704;2023-03-13T05:48:41;92028.56;;;2.04;100.00
52735;BME280;38631;47.572;10.704;2023-03-13T05:51:06;92034.00;;;2.28;100.00
52735;BME280;38631;47.572;10.704;2023-03-13T05:53:31;92039.75;;;2.30;100.00
52735;BME280;38631;47.572;10.704;2023-03-13T05:55:57;92044.44;;;2.38;100.00
52735;BME280;38631;47.572;10.704;2023-03-13T05:58:22;92014.41;;;2.10;100.00
52735;BME280;38631;47.572;10.704;2023-03-13T06:00:48;92009.94;;;2.26;100.00
52735;BME280;38631;47.572;10.704;2023-03-13T06:03:13;92009.91;;;2.31;100.00
52735;BME280;38631;47.572;10.704;2023-03-13T06:05:38;92004.63;;;2.41;100.00
52735;BME280;38631;47.572;10.704;2023-03-13T06:08:04;92010.16;;;2.34;100.00
52735;BME280;38631;47.572;10.704;2023-03-13T06:10:30;91992.28;;;2.47;100.00
52735;BME280;38631;47.572;10.704;2023-03-13T06:12:55;91993.84;;;2.48;100.00
52735;BME280;38631;47.572;10.704;2023-03-13T06:15:21;92008.53;;;2.49;98.53
52735;BME280;38631;47.572;10.704;2023-03-13T06:17:47;92013.44;;;2.60;96.85
52735;BME280;38631;47.572;10.704;2023-03-13T06:20:12;92004.81;;;2.60;98.10
52735;BME280;38631;47.572;10.704;2023-03-13T06:22:37;92018.66;;;2.66;99.59
52735;BME280;38631;47.572;10.704;2023-03-13T06:25:03;92024.19;;;2.64;98.77
52735;BME280;38631;47.572;10.704;2023-03-13T06:27:29;92010.50;;;2.77;100.00
52735;BME280;38631;47.572;10.704;2023-03-13T06:29:54;92001.84;;;2.77;100.00
52735;BME280;38631;47.572;10.704;2023-03-13T06:32:19;92001.59;;;2.78;100.00
52735;BME280;38631;47.572;10.704;2023-03-13T06:34:45;92016.28;;;2.74;100.00
52735;BME280;38631;47.572;10.704;2023-03-13T06:37:10;91999.78;;;2.74;100.00
52735;BME280;38631;47.572;10.704;2023-03-13T06:39:36;92020.22;;;2.77;98.89
52735;BME280;38631;47.572;10.704;2023-03-13T06:42:01;92009.44;;;2.84;99.20
52735;BME280;38631;47.572;10.704;2023-03-13T06:44:27;92031.41;;;2.88;98.91
52735;BME280;38631;47.572;10.704;2023-03-13T06:46:52;92014.13;;;2.87;97.72
52735;BME280;38631;47.572;10.704;2023-03-13T06:49:18;92010.97;;;2.90;97.45
52735;BME280;38631;47.572;10.704;2023-03-13T06:51:44;92023.25;;;2.99;98.05
52735;BME280;38631;47.572;10.704;2023-03-13T06:54:09;92012.50;;;3.01;100.00
52735;BME280;38631;47.572;10.704;2023-03-13T06:56:35;92003.06;;;2.95;98.79
52735;BME280;38631;47.572;10.704;2023-03-13T06:59:00;92005.41;;;3.01;99.47
52735;BME280;38631;47.572;10.704;2023-03-13T07:01:25;92000.38;;;3.05;99.04
52735;BME280;38631;47.572;10.704;2023-03-13T07:03:51;91995.44;;;3.03;98.58
52735;BME280;38631;47.572;10.704;2023-03-13T07:06:17;92015.31;;;3.10;99.44
52735;BME280;38631;47.572;10.704;2023-03-13T07:08:43;92002.94;;;3.15;98.47
52735;BME280;38631;47.572;10.704;2023-03-13T07:11:11;92000.84;;;3.17;95.70
52735;BME280;38631;47.572;10.704;2023-03-13T07:13:37;92010.75;;;3.25;96.58
52735;BME280;38631;47.572;10.704;2023-03-13T07:16:05;92017.22;;;3.38;96.43
52735;BME280;38631;47.572;10.704;2023-03-13T07:18:32;91992.28;;;3.41;97.50
52735;BME280;38631;47.572;10.704;2023-03-13T07:20:59;91997.69;;;3.55;95.03
52735;BME280;38631;47.572;10.704;2023-03-13T07:23:26;92001.88;;;3.56;95.81
52735;BME280;38631;47.572;10.704;2023-03-13T07:25:56;91998.72;;;3.59;96.55
52735;BME280;38631;47.572;10.704;2023-03-13T07:28:23;91993.22;;;3.55;95.41
52735;BME280;38631;47.572;10.704;2023-03-13T07:30:48;92001.63;;;3.57;95.68
52735;BME280;38631;47.572;10.704;2023-03-13T07:33:14;91996.28;;;3.67;94.34
52735;BME280;38631;47.572;10.704;2023-03-13T07:35:40;91988.59;;;3.76;94.32
52735;BME280;38631;47.572;10.704;2023-03-13T07:38:05;91986.16;;;3.85;94.95
52735;BME280;38631;47.572;10.704;2023-03-13T07:40:30;91973.59;;;4.06;97.68
52735;BME280;38631;47.572;10.704;2023-03-13T07:42:56;91970.47;;;4.04;94.83
52735;BME280;38631;47.572;10.704;2023-03-13T07:45:21;91969.91;;;4.07;95.90
52735;BME280;38631;47.572;10.704;2023-03-13T07:47:46;91954.63;;;4.14;95.66
52735;BME280;38631;47.572;10.704;2023-03-13T07:50:12;91949.78;;;4.21;92.22
52735;BME280;38631;47.572;10.704;2023-03-13T07:52:37;91961.97;;;4.36;91.97
52735;BME280;38631;47.572;10.704;2023-03-13T07:55:03;91958.56;;;4.36;93.37
52735;BME280;38631;47.572;10.704;2023-03-13T07:57:29;91947.22;;;4.40;92.70
52735;BME280;38631;47.572;10.704;2023-03-13T07:59:55;91946.38;;;4.45;93.16
52735;BME280;38631;47.572;10.704;2023-03-13T08:02:20;91927.75;;;4.84;89.15
52735;BME280;38631;47.572;10.704;2023-03-13T08:04:45;91947.47;;;5.38;88.13
52735;BME280;38631;47.572;10.704;2023-03-13T08:07:11;91959.56;;;5.72;87.69
52735;BME280;38631;47.572;10.704;2023-03-13T08:09:36;91955.69;;;7.67;80.88
52735;BME280;38631;47.572;10.704;2023-03-13T08:12:03;91953.59;;;7.32;81.75
52735;BME280;38631;47.572;10.704;2023-03-13T08:14:28;91956.94;;;6.88;82.65
52735;BME280;38631;47.572;10.704;2023-03-13T08:16:53;91950.16;;;6.96;84.03
52735;BME280;38631;47.572;10.704;2023-03-13T08:19:19;91954.03;;;7.71;80.69
52735;BME280;38631;47.572;10.704;2023-03-13T08:21:44;91953.94;;;7.85;81.38
52735;BME280;38631;47.572;10.704;2023-03-13T08:24:10;91959.16;;;7.98;78.72
52735;BME280;38631;47.572;10.704;2023-03-13T08:26:38;91977.47;;;7.95;78.56
52735;BME280;38631;47.572;10.704;2023-03-13T08:29:10;91972.28;;;7.58;81.11
52735;BME280;38631;47.572;10.704;2023-03-13T08:31:37;91978.44;;;7.99;79.02
52735;BME280;38631;47.572;10.704;2023-03-13T08:34:03;91984.06;;;7.52;82.20
52735;BME280;38631;47.572;10.704;2023-03-13T08:36:32;91977.94;;;7.88;83.43
52735;BME280;38631;47.572;10.704;2023-03-13T08:39:03;91963.63;;;7.89;78.01
52735;BME280;38631;47.572;10.704;2023-03-13T08:41:32;91954.00;;;7.93;79.98
52735;BME280;38631;47.572;10.704;2023-03-13T08:44:00;91947.66;;;7.72;83.37
52735;BME280;38631;47.572;10.704;2023-03-13T08:46:28;91945.47;;;7.96;84.95
52735;BME280;38631;47.572;10.704;2023-03-13T08:48:54;91939.63;;;8.08;83.05
52735;BME280;38631;47.572;10.704;2023-03-13T08:51:21;91940.69;;;8.07;83.44
52735;BME280;38631;47.572;10.704;2023-03-13T08:53:47;91929.84;;;9.23;74.42
52735;BME280;38631;47.572;10.704;2023-03-13T08:56:15;91923.19;;;10.16;70.07
52735;BME280;38631;47.572;10.704;2023-03-13T08:58:41;91919.53;;;9.48;73.10
52735;BME280;38631;47.572;10.704;2023-03-13T09:01:09;91917.69;;;9.22;75.90
52735;BME280;38631;47.572;10.704;2023-03-13T09:03:35;91913.13;;;9.84;71.30
52735;BME280;38631;47.572;10.704;2023-03-13T09:06:00;91917.38;;;10.23;70.33
52735;BME280;38631;47.572;10.704;2023-03-13T09:08:27;91912.72;;;10.20;70.76
52735;BME280;38631;47.572;10.704;2023-03-13T09:11:03;91911.31;;;9.58;73.33
52735;BME280;38631;47.572;10.704;2023-03-13T09:13:30;91914.31;;;10.59;69.45
52735;BME280;38631;47.572;10.704;2023-03-13T09:16:00;91899.50;;;10.11;72.88
52735;BME280;38631;47.572;10.704;2023-03-13T09:18:26;91895.63;;;10.47;69.71
52735;BME280;38631;47.572;10.704;2023-03-13T09:20:52;91901.75;;;10.39;70.76
52735;BME280;38631;47.572;10.704;2023-03-13T09:23:18;91891.81;;;10.19;72.82
52735;BME280;38631;47.572;10.704;2023-03-13T09:25:44;91901.34;;;10.28;72.89
52735;BME280;38631;47.572;10.704;2023-03-13T09:28:12;91914.75;;;10.14;73.80
52735;BME280;38631;47.572;10.704;2023-03-13T09:30:38;91900.00;;;10.43;72.67
52735;BME280;38631;47.572;10.704;2023-03-13T09:33:03;91908.34;;;10.63;70.96
52735;BME280;38631;47.572;10.704;2023-03-13T09:35:29;91901.69;;;10.56;71.42
52735;BME280;38631;47.572;10.704;2023-03-13T09:37:54;91905.41;;;10.55;71.84
52735;BME280;38631;47.572;10.704;2023-03-13T09:40:21;91901.91;;;11.44;69.56
52735;BME280;38631;47.572;10.704;2023-03-13T09:42:50;91886.72;;;11.44;66.30
52735;BME280;38631;47.572;10.704;2023-03-13T09:45:30;91888.53;;;11.53;65.69
52735;BME280;38631;47.572;10.704;2023-03-13T09:48:02;91892.63;;;11.29;67.97
52735;BME280;38631;47.572;10.704;2023-03-13T09:50:34;91887.03;;;11.43;68.02
52735;BME280;38631;47.572;10.704;2023-03-13T09:53:12;91898.84;;;11.33;70.48
52735;BME280;38631;47.572;10.704;2023-03-13T09:55:40;91895.72;;;11.52;70.72
52735;BME280;38631;47.572;10.704;2023-03-13T09:58:16;91893.72;;;11.49;73.13
52735;BME280;38631;47.572;10.704;2023-03-13T10:00:50;91893.28;;;12.01;67.92
52735;BME280;38631;47.572;10.704;2023-03-13T10:03:33;91887.38;;;11.96;66.08
52735;BME280;38631;47.572;10.704;2023-03-13T10:06:14;91884.16;;;12.02;66.08
52735;BME280;38631;47.572;10.704;2023-03-13T10:08:42;91893.38;;;12.05;65.12
52735;BME280;38631;47.572;10.704;2023-03-13T10:11:38;91903.59;;;12.15;66.26
52735;BME280;38631;47.572;10.704;2023-03-13T10:14:22;91893.75;;;12.28;66.25
52735;BME280;38631;47.572;10.704;2023-03-13T10:17:08;91892.19;;;11.81;69.49
52735;BME280;38631;47.572;10.704;2023-03-13T10:19:39;91884.84;;;11.78;69.74
52735;BME280;38631;47.572;10.704;2023-03-13T10:22:33;91879.66;;;12.27;68.00
52735;BME280;38631;47.572;10.704;2023-03-13T10:42:18;91845.50;;;11.72;69.96
52735;BME280;38631;47.572;10.704;2023-03-13T10:44:45;91832.88;;;11.81;69.58
52735;BME280;38631;47.572;10.704;2023-03-13T10:47:13;91825.44;;;11.74;69.28
52735;BME280;38631;47.572;10.704;2023-03-13T10:49:50;91828.34;;;11.81;70.01
52735;BME280;38631;47.572;10.704;2023-03-13T10:52:32;91819.53;;;12.02;69.63
52735;BME280;38631;47.572;10.704;2023-03-13T10:55:04;91807.75;;;11.91;69.72
52735;BME280;38631;47.572;10.704;2023-03-13T10:57:36;91819.34;;;12.19;68.42
52735;BME280;38631;47.572;10.704;2023-03-13T11:00:40;91805.91;;;12.16;68.42
52735;BME280;38631;47.572;10.704;2023-03-13T11:03:13;91801.88;;;12.46;67.34
52735;BME280;38631;47.572;10.704;2023-03-13T11:05:41;91799.91;;;12.43;66.92
52735;BME280;38631;47.572;10.704;2023-03-13T11:08:28;91797.69;;;12.33;65.73
52735;BME280;38631;47.572;10.704;2023-03-13T11:11:00;91799.66;;;12.61;63.21
52735;BME280;38631;47.572;10.704;2023-03-13T11:13:43;91804.22;;;12.72;63.23
52735;BME280;38631;47.572;10.704;2023-03-13T11:16:25;91791.97;;;12.84;62.88
52735;BME280;38631;47.572;10.704;2023-03-13T11:21:45;91791.03;;;12.51;63.35
52735;BME280;38631;47.572;10.704;2023-03-13T11:26:56;91790.69;;;12.41;63.35
52735;BME280;38631;47.572;10.704;2023-03-13T11:29:38;91787.94;;;12.13;64.02
52735;BME280;38631;47.572;10.704;2023-03-13T11:32:25;91782.16;;;12.47;63.07
52735;BME280;38631;47.572;10.704;2023-03-13T11:34:58;91775.59;;;12.57;62.25
52735;BME280;38631;47.572;10.704;2023-03-13T11:37:27;91772.06;;;12.28;63.79
52735;BME280;38631;47.572;10.704;2023-03-13T11:40:18;91768.28;;;12.54;61.91
52735;BME280;38631;47.572;10.704;2023-03-13T11:43:18;91755.53;;;12.47;61.98
52735;BME280;38631;47.572;10.704;2023-03-13T11:48:52;91732.31;;;12.60;62.04
52735;BME280;38631;47.572;10.704;2023-03-13T11:57:31;91739.22;;;12.49;63.44
52735;BME280;38631;47.572;10.704;2023-03-13T12:00:20;91731.84;;;12.70;62.45
52735;BME280;38631;47.572;10.704;2023-03-13T12:03:19;91732.06;;;12.65;62.42
52735;BME280;38631;47.572;10.704;2023-03-13T12:05:52;91739.16;;;12.73;62.30
52735;BME280;38631;47.572;10.704;2023-03-13T12:08:42;91732.56;;;12.55;62.47
52735;BME280;38631;47.572;10.704;2023-03-13T12:11:30;91728.91;;;12.47;63.38
52735;BME280;38631;47.572;10.704;2023-03-13T12:14:01;91729.84;;;12.67;62.14
52735;BME280;38631;47.572;10.704;2023-03-13T12:16:45;91736.50;;;12.61;62.66
52735;BME280;38631;47.572;10.704;2023-03-13T12:19:19;91744.66;;;12.52;62.59
52735;BME280;38631;47.572;10.704;2023-03-13T12:21:49;91745.63;;;12.60;62.05
52735;BME280;38631;47.572;10.704;2023-03-13T12:29:48;91721.47;;;12.41;63.35
52735;BME280;38631;47.572;10.704;2023-03-13T12:32:23;91717.56;;;12.50;61.88
52735;BME280;38631;47.572;10.704;2023-03-13T12:34:56;91714.00;;;12.59;62.41
52735;BME280;38631;47.572;10.704;2023-03-13T12:37:38;91696.84;;;12.44;63.15
52735;BME280;38631;47.572;10.704;2023-03-13T12:40:17;91700.03;;;12.62;61.90
52735;BME280;38631;47.572;10.704;2023-03-13T12:45:17;91707.19;;;12.73;62.15
52735;BME280;38631;47.572;10.704;2023-03-13T12:53:49;91682.41;;;12.85;62.18
52735;BME280;38631;47.572;10.704;2023-03-13T12:59:18;91672.66;;;13.05;63.12
52735;BME280;38631;47.572;10.704;2023-03-13T13:01:52;91674.03;;;12.99;62.77
52735;BME280;38631;47.572;10.704;2023-03-13T13:04:23;91666.25;;;12.94;64.23
52735;BME280;38631;47.572;10.704;2023-03-13T13:07:05;91669.22;;;13.05;63.33
52735;BME280;38631;47.572;10.704;2023-03-13T13:09:34;91666.34;;;12.97;63.45
52735;BME280;38631;47.572;10.704;2023-03-13T13:16:59;91664.31;;;12.79;65.01
52735;BME280;38631;47.572;10.704;2023-03-13T13:22:45;91663.38;;;13.15;61.42
52735;BME280;38631;47.572;10.704;2023-03-13T13:32:31;91643.16;;;12.98;63.47
52735;BME280;38631;47.572;10.704;2023-03-13T13:37:45;91629.56;;;13.03;64.18
52735;BME280;38631;47.572;10.704;2023-03-13T13:40:30;91637.25;;;13.21;65.25
52735;BME280;38631;47.572;10.704;2023-03-13T13:42:59;91629.50;;;13.15;65.28
52735;BME280;38631;47.572;10.704;2023-03-13T13:45:28;91624.41;;;13.10;65.02
52735;BME280;38631;47.572;10.704;2023-03-13T13:48:29;91630.44;;;13.07;63.73
52735;BME280;38631;47.572;10.704;2023-03-13T14:01:21;91602.78;;;12.84;66.34
52735;BME280;38631;47.572;10.704;2023-03-13T14:03:50;91603.47;;;12.81;65.95
52735;BME280;38631;47.572;10.704;2023-03-13T14:06:26;91596.81;;;13.18;63.74
52735;BME280;38631;47.572;10.704;2023-03-13T14:08:56;91587.34;;;13.21;63.76
52735;BME280;38631;47.572;10.704;2023-03-13T14:11:34;91572.66;;;13.11;64.02
52735;BME280;38631;47.572;10.704;2023-03-13T14:16:33;91560.34;;;12.91;63.21
52735;BME280;38631;47.572;10.704;2023-03-13T14:18:58;91556.50;;;13.04;63.73
52735;BME280;38631;47.572;10.704;2023-03-13T14:21:24;91539.38;;;13.21;63.95
52735;BME280;38631;47.572;10.704;2023-03-13T14:23:51;91530.53;;;13.33;62.69
52735;BME280;38631;47.572;10.704;2023-03-13T14:26:26;91527.94;;;13.52;63.58
52735;BME280;38631;47.572;10.704;2023-03-13T14:29:00;91523.66;;;13.32;64.26